Terminal Aerodrome Forecast
Issued by NWS

Home | Current Version | Previous Version | Graphics & Text | Print | Product List | Glossary On
Versions: 1 2 3 4 5 6 7 8 9 10 11 12 13 14 15 16 17 18 19 20 21 22 23 24
032
FTUS43 KGRB 070520
TAFATW
TAF
KATW 070520Z 0706/0806 25014G26KT P6SM -SN BKN024
     FM071500 25018G31KT P6SM BKN026
     FM072200 25013G24KT P6SM BKN035
     FM080300 26013G24KT P6SM BKN028=

USA.gov is the U.S. government's official web portal to all federal, state and local government web resources and services.